Time;durP1;ratioP1;P1;durP2;ratioP2;P2;SDS_P1;SDS_P2;PMS_P1;PMS_P2;Temp;Humidity;BMP_temperature;BMP_pressure;BME280_temperature;BME280_humidity;BME280_pressure;Samples;Min_cycle;Max_cycle;Signal;HPM_P1;HPM_P2
2023/07/26 00:01:31;;;;;;;1.88;1.40;;;;;;;15.81;92.99;100930.56;4993602;28;20037;-80
2023/07/26 00:03:58;;;;;;;5.22;1.52;;;;;;;15.86;92.36;100921.69;5004781;28;20037;-80
2023/07/26 00:06:25;;;;;;;2.08;1.88;;;;;;;15.85;92.22;100929.34;4997243;28;20061;-80
2023/07/26 00:08:51;;;;;;;3.33;1.55;;;;;;;15.84;92.53;100924.09;5003897;28;20064;-80
2023/07/26 00:11:16;;;;;;;2.40;2.20;;;;;;;15.74;92.68;100924.97;5003456;28;20029;-80
2023/07/26 00:13:41;;;;;;;3.33;1.50;;;;;;;15.79;92.38;100922.53;5001794;28;20030;-80
2023/07/26 00:16:07;;;;;;;1.77;1.30;;;;;;;15.67;93.11;100919.34;4988573;28;20041;-81
2023/07/26 00:18:32;;;;;;;1.98;1.55;;;;;;;15.73;92.33;100918.53;4994188;28;20108;-80
2023/07/26 00:20:57;;;;;;;5.18;1.38;;;;;;;15.74;92.18;100919.34;4998628;28;20029;-79
2023/07/26 00:23:23;;;;;;;2.78;1.90;;;;;;;15.71;92.76;100920.13;5005372;28;20040;-79
2023/07/26 00:25:48;;;;;;;2.63;1.75;;;;;;;15.76;91.86;100917.69;4998575;28;20037;-80
2023/07/26 00:28:14;;;;;;;2.40;1.58;;;;;;;15.70;92.06;100915.69;5001234;28;20137;-81
2023/07/26 00:30:39;;;;;;;2.65;1.77;;;;;;;15.61;92.90;100916.16;4995772;28;20546;-80
2023/07/26 00:33:04;;;;;;;3.05;1.63;;;;;;;15.61;92.63;100919.78;4994939;28;20060;-79
2023/07/26 00:35:35;;;;;;;5.07;1.80;;;;;;;15.63;92.44;100920.16;4994770;28;20034;-80
2023/07/26 00:38:01;;;;;;;4.00;1.80;;;;;;;15.41;93.52;100915.84;4994754;28;20030;-80
2023/07/26 00:40:26;;;;;;;1.92;1.63;;;;;;;15.49;93.38;100920.22;4999488;28;20030;-80
2023/07/26 00:42:52;;;;;;;3.55;1.92;;;;;;;15.56;92.76;100920.22;5014683;28;20041;-80
2023/07/26 00:45:17;;;;;;;1.80;1.40;;;;;;;15.53;92.92;100929.47;4999925;28;20041;-80
2023/07/26 00:47:43;;;;;;;2.13;1.58;;;;;;;15.46;93.09;100921.06;4990808;28;20445;-80
2023/07/26 00:50:09;;;;;;;4.35;1.77;;;;;;;15.52;92.96;100927.91;4996487;28;20030;-80
2023/07/26 00:52:35;;;;;;;3.95;2.08;;;;;;;15.60;92.53;100929.47;4997291;28;20037;-79
2023/07/26 00:55:02;;;;;;;3.00;1.50;;;;;;;15.62;92.60;100929.84;4999539;28;20540;-79
2023/07/26 00:57:29;;;;;;;2.92;1.67;;;;;;;15.54;93.05;100919.03;5003039;28;20030;-79
2023/07/26 00:59:55;;;;;;;2.45;2.10;;;;;;;15.45;93.58;100919.44;5006348;28;20057;-80
2023/07/26 01:02:21;;;;;;;2.85;1.90;;;;;;;15.50;92.52;100921.84;4999508;28;20030;-80
2023/07/26 01:04:46;;;;;;;4.47;1.83;;;;;;;15.52;92.49;100918.63;5000651;28;20550;-79
2023/07/26 01:07:21;;;;;;;2.33;1.65;;;;;;;15.51;92.46;100923.44;5004484;28;20497;-80
2023/07/26 01:10:17;;;;;;;4.28;1.83;;;;;;;15.54;92.33;100919.03;4995968;28;20518;-80
2023/07/26 01:12:54;;;;;;;3.38;1.90;;;;;;;15.55;93.11;100929.88;4995935;28;20525;-80
2023/07/26 01:15:29;;;;;;;2.90;2.20;;;;;;;15.40;93.53;100920.69;4993939;28;20033;-80
2023/07/26 01:18:26;;;;;;;4.68;2.25;;;;;;;15.26;94.23;100917.94;4994174;28;21180;-80
2023/07/26 01:20:52;;;;;;;2.75;1.98;;;;;;;15.16;95.13;100918.78;4968685;28;20635;-80
2023/07/26 01:23:17;;;;;;;3.78;1.90;;;;;;;15.40;93.30;100931.16;5001351;28;20532;-80
2023/07/26 01:25:42;;;;;;;2.47;1.70;;;;;;;15.50;93.23;100926.69;5019666;28;20022;-80
2023/07/26 01:28:08;;;;;;;3.03;1.70;;;;;;;15.47;93.26;100933.16;4998323;28;20288;-80
2023/07/26 01:30:35;;;;;;;3.15;2.08;;;;;;;15.48;93.01;100912.22;4998650;28;20033;-80
2023/07/26 01:33:04;;;;;;;2.55;1.75;;;;;;;15.35;93.56;100920.34;4995109;28;20025;-80
2023/07/26 01:35:30;;;;;;;2.58;1.80;;;;;;;15.10;95.38;100932.50;5001234;28;20076;-80
2023/07/26 01:37:56;;;;;;;2.15;1.65;;;;;;;15.32;94.00;100923.94;4995337;28;20026;-80
2023/07/26 01:40:22;;;;;;;3.20;1.83;;;;;;;15.46;93.04;100923.88;4993076;28;20467;-80
2023/07/26 01:42:48;;;;;;;3.28;2.13;;;;;;;15.45;92.95;100923.09;4997774;28;20038;-79
2023/07/26 01:45:13;;;;;;;3.28;2.13;;;;;;;15.43;92.82;100919.88;4998794;28;20096;-80
2023/07/26 01:47:39;;;;;;;2.42;1.63;;;;;;;15.22;94.18;100914.31;4999114;28;20478;-80
2023/07/26 01:50:05;;;;;;;4.22;1.80;;;;;;;15.38;92.80;100922.31;4998687;28;20455;-79
2023/07/26 01:52:31;;;;;;;4.45;2.00;;;;;;;14.98;95.14;100924.47;4997864;28;20164;-79
2023/07/26 01:54:56;;;;;;;3.47;1.65;;;;;;;15.15;94.42;100937.72;4999066;28;20064;-79
2023/07/26 01:57:24;;;;;;;5.07;2.25;;;;;;;15.26;93.41;100929.19;4999128;28;20080;-79
2023/07/26 01:59:50;;;;;;;2.63;1.55;;;;;;;15.30;93.03;100935.63;4995679;28;20116;-79
2023/07/26 02:02:15;;;;;;;4.03;1.83;;;;;;;15.34;92.35;100932.81;4999147;28;20033;-79
2023/07/26 02:04:43;;;;;;;4.65;2.10;;;;;;;15.27;92.56;100935.66;4992328;28;20398;-79
2023/07/26 02:07:08;;;;;;;3.42;2.20;;;;;;;15.22;92.62;100934.88;5004295;28;20054;-79
2023/07/26 02:09:33;;;;;;;2.78;2.08;;;;;;;15.01;93.46;100940.56;4998789;28;20026;-80
2023/07/26 02:11:59;;;;;;;4.05;1.83;;;;;;;14.99;93.51;100928.91;5001818;28;20782;-79
2023/07/26 02:14:24;;;;;;;4.80;1.95;;;;;;;15.11;92.70;100917.19;5001957;28;20834;-79
2023/07/26 02:16:49;;;;;;;4.38;2.55;;;;;;;15.15;92.91;100923.59;4996483;28;20034;-79
2023/07/26 02:19:15;;;;;;;4.88;1.63;;;;;;;15.10;93.31;100923.25;4998832;28;20029;-79
2023/07/26 02:21:40;;;;;;;2.63;1.65;;;;;;;15.13;93.22;100919.59;4994555;28;20128;-80
2023/07/26 02:24:06;;;;;;;3.80;1.85;;;;;;;15.03;93.41;100915.59;4995795;28;20038;-79
2023/07/26 02:26:31;;;;;;;3.40;1.85;;;;;;;14.95;94.09;100925.31;4997807;28;20084;-79
2023/07/26 02:29:00;;;;;;;3.40;2.10;;;;;;;14.96;93.78;100924.09;5002648;28;20025;-79
2023/07/26 02:31:25;;;;;;;2.30;1.63;;;;;;;14.97;94.13;100922.88;5000330;28;20033;-79
2023/07/26 02:33:50;;;;;;;3.20;1.85;;;;;;;15.03;93.80;100924.03;4997995;28;20120;-79
2023/07/26 02:36:16;;;;;;;3.15;2.20;;;;;;;14.87;94.80;100924.50;4998930;28;20504;-80
2023/07/26 02:38:41;;;;;;;2.67;2.05;;;;;;;14.91;94.45;100930.16;4996387;28;20493;-79
2023/07/26 02:41:06;;;;;;;2.67;1.67;;;;;;;15.01;93.46;100929.28;4997974;28;20442;-79
2023/07/26 02:43:32;;;;;;;2.78;1.95;;;;;;;14.89;94.87;100915.66;4996027;28;20485;-79
2023/07/26 02:45:57;;;;;;;4.25;2.50;;;;;;;14.81;94.79;100921.28;5000488;28;20042;-79
2023/07/26 02:48:22;;;;;;;3.58;2.20;;;;;;;14.88;94.67;100928.13;4998267;28;20053;-80
2023/07/26 02:50:48;;;;;;;4.63;1.95;;;;;;;14.80;95.01;100916.88;4993280;28;20044;-78
2023/07/26 02:53:13;;;;;;;3.70;2.83;;;;;;;14.67;96.15;100921.31;4993694;28;20486;-79
2023/07/26 02:55:42;;;;;;;3.75;2.40;;;;;;;14.65;95.74;100915.28;5005982;28;20455;-79
2023/07/26 02:58:08;;;;;;;3.85;2.08;;;;;;;14.43;97.77;100912.47;5011465;28;20076;-79
2023/07/26 03:00:33;;;;;;;4.13;2.13;;;;;;;14.59;96.70;100911.31;4984132;28;20026;-80
2023/07/26 03:02:59;;;;;;;3.20;2.33;;;;;;;14.56;96.55;100907.25;4991542;28;20433;-80
2023/07/26 03:05:24;;;;;;;4.75;3.00;;;;;;;14.57;96.55;100908.09;4993561;28;20457;-80
2023/07/26 03:07:50;;;;;;;9.30;2.97;;;;;;;14.54;97.03;100917.28;4998406;28;20053;-80
2023/07/26 03:10:15;;;;;;;6.43;2.53;;;;;;;14.69;95.75;100910.44;4993282;28;20144;-78
2023/07/26 03:12:40;;;;;;;3.63;2.00;;;;;;;14.63;95.91;100910.06;4992312;28;20042;-79
2023/07/26 03:15:06;;;;;;;4.90;2.67;;;;;;;14.62;95.82;100913.28;4989296;28;20057;-78
2023/07/26 03:17:32;;;;;;;4.15;2.60;;;;;;;14.48;97.18;100913.28;4993568;28;20026;-79
2023/07/26 03:19:57;;;;;;;3.33;2.08;;;;;;;14.55;96.35;100902.03;5005975;28;20519;-78
2023/07/26 03:22:23;;;;;;;4.15;2.40;;;;;;;14.62;95.76;100910.47;4999318;28;20076;-79
2023/07/26 03:24:48;;;;;;;2.78;2.10;;;;;;;14.59;96.08;100909.28;4994566;28;20383;-79
2023/07/26 03:27:13;;;;;;;3.35;2.55;;;;;;;14.58;96.10;100918.13;4989180;28;20033;-79
2023/07/26 03:29:39;;;;;;;4.38;2.65;;;;;;;14.50;96.84;100922.13;4996310;28;20022;-78
2023/07/26 03:32:06;;;;;;;3.88;2.80;;;;;;;14.55;96.22;100925.38;5003272;28;20431;-79
2023/07/26 03:34:31;;;;;;;3.85;2.45;;;;;;;14.50;96.60;100925.75;5001175;28;20573;-79
2023/07/26 03:36:56;;;;;;;7.25;3.08;;;;;;;14.52;97.10;100920.50;5003407;28;20073;-78
2023/07/26 03:39:22;;;;;;;2.92;2.47;;;;;;;14.49;96.73;100918.50;4997355;28;20100;-79
2023/07/26 03:41:47;;;;;;;3.70;2.42;;;;;;;14.54;96.71;100928.56;4998569;28;20561;-79
2023/07/26 03:44:12;;;;;;;3.85;2.60;;;;;;;14.58;96.07;100923.75;4998393;28;20034;-79
2023/07/26 03:46:38;;;;;;;4.60;2.38;;;;;;;14.48;97.34;100921.72;4997762;28;20045;-79
2023/07/26 03:49:03;;;;;;;4.78;2.15;;;;;;;14.56;96.11;100921.34;4993713;28;20038;-78
2023/07/26 03:51:29;;;;;;;6.00;3.45;;;;;;;14.51;96.22;100920.94;5002341;28;20449;-79
2023/07/26 03:53:54;;;;;;;2.45;2.05;;;;;;;14.54;96.12;100917.28;5001541;28;20041;-81
2023/07/26 03:56:19;;;;;;;4.40;2.55;;;;;;;14.48;97.16;100930.19;5001819;28;20030;-80
2023/07/26 03:58:45;;;;;;;4.22;2.63;;;;;;;14.53;96.61;100922.13;4997330;28;20467;-80
2023/07/26 04:01:10;;;;;;;3.45;2.83;;;;;;;14.49;96.45;100931.81;5003449;28;20087;-80
2023/07/26 04:03:35;;;;;;;2.97;2.25;;;;;;;14.53;96.38;100932.59;5003941;28;20116;-80
2023/07/26 04:06:01;;;;;;;2.78;2.47;;;;;;;14.49;96.57;100932.59;5006983;28;20045;-80
2023/07/26 04:08:26;;;;;;;6.07;3.35;;;;;;;14.56;96.60;100938.25;5004343;28;20397;-79
2023/07/26 04:10:51;;;;;;;4.18;2.60;;;;;;;14.48;97.36;100941.44;4999141;28;20034;-80
2023/07/26 04:13:17;;;;;;;4.45;2.50;;;;;;;14.53;96.53;100950.28;5003249;28;20088;-79
2023/07/26 04:15:42;;;;;;;4.82;2.78;;;;;;;14.54;97.15;100951.09;4995549;28;20061;-79
2023/07/26 04:18:07;;;;;;;4.18;3.10;;;;;;;14.55;96.28;100962.00;4994235;28;20115;-79
2023/07/26 04:20:33;;;;;;;3.58;3.05;;;;;;;14.61;95.96;100945.50;4993261;28;20092;-79
2023/07/26 04:22:58;;;;;;;5.25;2.40;;;;;;;14.55;96.48;100952.72;5002208;28;20891;-78
2023/07/26 04:25:24;;;;;;;3.95;2.67;;;;;;;14.50;96.72;100948.28;4990159;28;20030;-80
2023/07/26 04:27:49;;;;;;;2.78;2.15;;;;;;;14.57;96.70;100950.34;5012035;28;20033;-80
2023/07/26 04:30:15;;;;;;;5.10;3.17;;;;;;;14.59;96.36;100959.19;4997170;28;20093;-80
2023/07/26 04:32:40;;;;;;;9.13;3.00;;;;;;;14.55;96.78;100949.91;4999044;28;20402;-80
2023/07/26 04:35:05;;;;;;;4.25;2.25;;;;;;;14.64;95.75;100955.94;4996434;28;20034;-80
2023/07/26 04:37:31;;;;;;;4.45;2.10;;;;;;;14.56;96.62;100945.91;5004190;28;20080;-79
2023/07/26 04:39:56;;;;;;;3.53;2.53;;;;;;;14.57;96.73;100953.16;5002375;28;20113;-78
2023/07/26 04:42:22;;;;;;;3.40;2.30;;;;;;;14.62;96.78;100947.09;4999128;28;20117;-80
2023/07/26 04:44:47;;;;;;;3.47;2.40;;;;;;;14.68;95.74;100945.47;4998648;28;20037;-79
2023/07/26 04:47:15;;;;;;;3.15;2.60;;;;;;;14.59;96.57;100948.72;4995596;28;20026;-79
2023/07/26 04:49:41;;;;;;;5.13;1.98;;;;;;;14.58;97.37;100951.94;5000220;28;20083;-80
2023/07/26 04:52:06;;;;;;;4.63;2.72;;;;;;;14.44;97.91;100947.06;4998552;28;20037;-80
2023/07/26 04:54:32;;;;;;;4.20;2.70;;;;;;;14.54;98.36;100956.72;5000967;28;20502;-79
2023/07/26 04:56:57;;;;;;;4.13;2.50;;;;;;;14.48;97.70;100958.34;4998053;28;20148;-80
2023/07/26 04:59:22;;;;;;;6.28;3.03;;;;;;;14.64;95.57;100955.94;4994691;28;20116;-80
2023/07/26 05:01:48;;;;;;;3.58;2.30;;;;;;;14.66;96.44;100952.75;4990016;28;20029;-80
2023/07/26 05:04:13;;;;;;;4.18;2.40;;;;;;;14.67;96.37;100952.31;4991980;28;20091;-80
2023/07/26 05:06:38;;;;;;;5.35;2.33;;;;;;;14.74;95.37;100957.94;4999944;28;20412;-79
2023/07/26 05:09:05;;;;;;;3.58;2.40;;;;;;;14.65;96.33;100960.34;5001035;28;20022;-79
2023/07/26 05:11:30;;;;;;;4.38;3.05;;;;;;;14.54;97.90;100953.91;5002205;28;20034;-78
2023/07/26 05:13:56;;;;;;;3.45;2.55;;;;;;;14.68;97.05;100962.38;5002669;28;20029;-79
2023/07/26 05:16:21;;;;;;;4.90;2.63;;;;;;;14.66;98.05;100958.38;4991366;28;20446;-79
2023/07/26 05:18:47;;;;;;;9.55;2.65;;;;;;;14.65;97.71;100963.19;4988854;28;20491;-79
2023/07/26 05:21:13;;;;;;;3.65;2.65;;;;;;;14.62;100.00;100955.56;4990654;28;20045;-79
2023/07/26 05:23:38;;;;;;;4.78;2.85;;;;;;;14.56;99.30;100955.16;5007068;28;20076;-79
2023/07/26 05:26:03;;;;;;;3.15;2.13;;;;;;;14.55;98.72;100942.28;4990698;28;20451;-79
2023/07/26 05:28:29;;;;;;;2.95;2.35;;;;;;;14.68;98.11;100951.13;4992637;28;20032;-78
2023/07/26 05:30:56;;;;;;;4.65;3.20;;;;;;;14.58;100.00;100949.13;4981025;28;20041;-79
2023/07/26 05:33:21;;;;;;;5.35;2.63;;;;;;;14.66;99.13;100947.09;4994925;28;20041;-78
2023/07/26 05:35:47;;;;;;;4.60;2.83;;;;;;;14.72;99.96;100946.28;4988722;28;20038;-77
2023/07/26 05:38:13;;;;;;;4.57;3.42;;;;;;;14.74;99.54;100949.50;4992884;28;20030;-79
2023/07/26 05:40:38;;;;;;;5.18;2.58;;;;;;;14.72;100.00;100954.72;4997587;28;20058;-78
2023/07/26 05:43:03;;;;;;;7.60;3.28;;;;;;;14.71;98.77;100960.75;4994887;28;20025;-79
2023/07/26 05:45:29;;;;;;;4.10;2.72;;;;;;;14.64;100.00;100956.75;5008022;28;20484;-78
2023/07/26 05:47:54;;;;;;;4.45;3.28;;;;;;;14.68;100.00;100951.13;4994489;28;20034;-78
2023/07/26 05:50:20;;;;;;;4.57;2.83;;;;;;;14.91;98.55;100958.34;4995520;28;20038;-79
2023/07/26 05:52:45;;;;;;;3.72;2.60;;;;;;;14.73;99.80;100958.34;4992676;28;20522;-80
2023/07/26 05:55:12;;;;;;;5.22;2.65;;;;;;;14.76;100.00;100954.75;4995940;28;20026;-79
2023/07/26 05:57:37;;;;;;;4.13;2.85;;;;;;;14.83;99.10;100963.97;4992011;28;20030;-79
2023/07/26 06:00:03;;;;;;;8.10;2.88;;;;;;;14.67;100.00;100949.50;4995818;28;20175;-79
2023/07/26 06:02:28;;;;;;;3.72;2.33;;;;;;;14.68;100.00;100955.94;4995051;28;20041;-79
2023/07/26 06:04:54;;;;;;;5.22;2.88;;;;;;;14.87;98.73;100963.16;4995939;28;20553;-79
2023/07/26 06:07:19;;;;;;;4.10;2.50;;;;;;;15.01;96.32;100969.59;4985251;28;20050;-79
2023/07/26 06:09:45;;;;;;;5.63;3.13;;;;;;;15.12;95.76;100963.91;4979525;28;20021;-79
2023/07/26 06:12:10;;;;;;;2.97;2.63;;;;;;;15.10;96.38;100966.34;4971302;28;20241;-79
2023/07/26 06:14:36;;;;;;;6.55;2.65;;;;;;;15.16;97.33;100978.81;4990055;28;20076;-79
2023/07/26 06:17:02;;;;;;;5.95;2.20;;;;;;;15.12;97.13;100969.53;4998763;28;20080;-79
2023/07/26 06:19:27;;;;;;;4.10;2.40;;;;;;;14.90;100.00;100973.63;4996881;28;20030;-79
2023/07/26 06:21:55;;;;;;;5.28;2.20;;;;;;;14.96;99.41;100972.78;4997230;28;20048;-79
2023/07/26 06:24:22;;;;;;;5.30;2.20;;;;;;;14.93;100.00;100982.06;4997765;28;20034;-79
2023/07/26 06:26:48;;;;;;;3.58;2.58;;;;;;;15.09;99.01;100987.25;4993372;28;20033;-80
2023/07/26 06:29:13;;;;;;;3.72;2.20;;;;;;;15.87;99.96;100993.84;4996580;28;20746;-80
2023/07/26 06:31:39;;;;;;;2.65;2.40;;;;;;;16.73;93.90;100992.41;4990759;28;20046;-80
2023/07/26 06:34:04;;;;;;;3.13;2.53;;;;;;;17.36;93.67;101003.50;4987376;28;20068;-81
2023/07/26 06:36:29;;;;;;;2.70;1.90;;;;;;;16.72;91.48;101011.41;5005984;28;20053;-80
2023/07/26 06:38:55;;;;;;;5.32;1.95;;;;;;;16.77;93.35;101016.59;4993877;28;20376;-80
2023/07/26 06:41:20;;;;;;;3.08;1.92;;;;;;;16.93;94.73;101012.44;5001689;28;20092;-80
2023/07/26 06:43:46;;;;;;;2.53;2.10;;;;;;;16.26;90.63;101015.38;5002794;28;20079;-81
2023/07/26 06:46:11;;;;;;;4.15;1.48;;;;;;;16.40;97.17;101023.78;4991233;28;20030;-81
2023/07/26 06:48:37;;;;;;;2.53;1.58;;;;;;;15.75;94.39;101025.38;5000153;28;20042;-82
2023/07/26 06:51:04;;;;;;;2.70;1.83;;;;;;;16.04;92.25;101023.19;5000759;28;20057;-82
2023/07/26 06:53:29;;;;;;;3.63;2.03;;;;;;;16.00;92.57;101023.22;5001327;28;20456;-82
2023/07/26 06:55:58;;;;;;;5.68;2.63;;;;;;;16.05;97.46;101027.63;5006157;28;20113;-81
2023/07/26 06:58:24;;;;;;;4.50;2.40;;;;;;;16.11;94.83;101028.81;5006682;28;20096;-81
2023/07/26 07:00:49;;;;;;;3.45;2.33;;;;;;;15.86;92.57;101026.09;4994801;28;20045;-81
2023/07/26 07:03:14;;;;;;;4.80;2.08;;;;;;;15.60;97.44;101033.84;4997965;28;20518;-81
2023/07/26 07:05:40;;;;;;;3.25;2.53;;;;;;;15.30;100.00;101047.63;5002214;28;20022;-80
2023/07/26 07:08:05;;;;;;;4.28;2.45;;;;;;;15.08;100.00;101066.63;5019153;28;20167;-80
2023/07/26 07:10:30;;;;;;;6.68;2.45;;;;;;;15.15;100.00;101078.69;4995034;28;20014;-79
2023/07/26 07:12:56;;;;;;;3.13;2.30;;;;;;;14.81;100.00;101067.81;4995608;28;20076;-78
2023/07/26 07:15:21;;;;;;;6.22;4.05;;;;;;;14.65;100.00;101067.41;4998601;28;20119;-78
2023/07/26 07:17:47;;;;;;;4.88;3.58;;;;;;;14.74;100.00;101070.66;4996611;28;20117;-78
2023/07/26 07:20:12;;;;;;;5.32;3.60;;;;;;;14.76;100.00;101068.25;5000536;28;20026;-78
2023/07/26 07:22:37;;;;;;;4.43;3.03;;;;;;;15.05;100.00;101059.75;5000365;28;20034;-78
2023/07/26 07:25:03;;;;;;;6.97;3.28;;;;;;;15.30;100.00;101053.28;4999472;28;20030;-78
2023/07/26 07:27:29;;;;;;;4.95;3.38;;;;;;;15.62;99.72;101056.81;5001743;28;20088;-78
2023/07/26 07:29:54;;;;;;;5.22;3.53;;;;;;;15.95;99.56;101062.34;5000034;28;20101;-78
2023/07/26 07:32:20;;;;;;;7.85;3.95;;;;;;;15.76;99.10;101060.81;4998347;28;20042;-78
2023/07/26 07:34:46;;;;;;;4.22;3.25;;;;;;;16.00;100.00;101051.44;4996439;28;20038;-78
2023/07/26 07:37:12;;;;;;;6.18;3.70;;;;;;;16.67;100.00;101054.22;4997011;28;20026;-78
2023/07/26 07:39:37;;;;;;;6.13;4.13;;;;;;;16.60;99.84;101045.81;4998429;28;20026;-78
2023/07/26 07:42:03;;;;;;;7.70;3.97;;;;;;;16.94;96.94;101047.97;5003038;28;20038;-78
2023/07/26 07:44:29;;;;;;;5.82;3.95;;;;;;;17.13;99.74;101047.38;5003378;28;20030;-78
2023/07/26 07:46:55;;;;;;;8.88;3.25;;;;;;;16.88;100.00;101053.28;4994227;28;20045;-78
2023/07/26 07:49:20;;;;;;;5.70;2.78;;;;;;;17.17;96.39;101053.81;4999323;28;20103;-78
2023/07/26 07:51:46;;;;;;;4.40;2.92;;;;;;;16.89;94.40;101051.25;4993602;28;20468;-79
2023/07/26 07:54:11;;;;;;;6.53;2.50;;;;;;;16.75;97.81;101047.31;4996931;28;20065;-79
2023/07/26 07:56:37;;;;;;;7.72;2.97;;;;;;;16.18;99.72;101045.69;5001310;28;20040;-78
2023/07/26 07:59:03;;;;;;;5.47;2.90;;;;;;;15.89;100.00;101047.84;5005212;28;20046;-79
2023/07/26 08:01:28;;;;;;;6.85;3.45;;;;;;;16.29;100.00;101042.78;5000943;28;20033;-78
2023/07/26 08:03:53;;;;;;;5.03;2.75;;;;;;;17.10;98.92;101042.59;4998206;28;20088;-79
2023/07/26 08:06:19;;;;;;;5.80;3.17;;;;;;;17.11;97.44;101043.38;5004433;28;20061;-79
2023/07/26 08:08:44;;;;;;;4.40;2.97;;;;;;;17.26;99.97;101045.63;5002187;28;20184;-79
2023/07/26 08:11:10;;;;;;;7.57;3.38;;;;;;;17.49;97.22;101047.00;4998000;28;20037;-78
2023/07/26 08:13:35;;;;;;;3.50;2.85;;;;;;;17.76;95.51;101049.13;5003143;28;20033;-79
2023/07/26 08:16:02;;;;;;;5.28;2.78;;;;;;;17.88;95.22;101048.59;5003781;28;20033;-79
2023/07/26 08:18:27;;;;;;;2.72;2.50;;;;;;;18.18;95.09;101055.47;5001504;28;20479;-79
2023/07/26 08:20:53;;;;;;;5.95;2.58;;;;;;;17.47;100.00;101050.25;5007224;28;20060;-79
2023/07/26 08:23:18;;;;;;;3.65;2.95;;;;;;;18.03;92.39;101052.84;5004923;28;20025;-79
2023/07/26 08:25:43;;;;;;;2.55;2.35;;;;;;;17.68;96.03;101049.19;5006331;28;20030;-79
2023/07/26 08:28:09;;;;;;;5.32;2.88;;;;;;;17.97;95.12;101048.88;5012303;28;20069;-79
2023/07/26 08:30:34;;;;;;;5.53;4.07;;;;;;;18.00;97.93;101041.53;5010645;28;20064;-79
2023/07/26 08:32:59;;;;;;;4.68;3.08;;;;;;;18.05;96.22;101056.03;5004123;28;20033;-79
2023/07/26 08:35:25;;;;;;;4.10;2.95;;;;;;;18.30;95.15;101049.22;5005272;28;20037;-79
2023/07/26 08:37:51;;;;;;;6.63;2.78;;;;;;;18.17;97.09;101053.84;5007279;28;20034;-79
2023/07/26 08:40:17;;;;;;;4.47;2.90;;;;;;;18.15;97.20;101053.47;5000479;28;20030;-79
2023/07/26 08:42:42;;;;;;;4.93;2.92;;;;;;;18.21;93.70;101051.78;5003700;28;20030;-80
2023/07/26 08:45:09;;;;;;;5.43;2.78;;;;;;;18.02;95.41;101059.72;5008055;28;20032;-79
2023/07/26 08:47:35;;;;;;;4.57;2.90;;;;;;;18.14;96.26;101054.72;4997821;28;20029;-80
2023/07/26 08:50:03;;;;;;;5.22;2.30;;;;;;;18.16;96.91;101055.09;5002062;28;20033;-80
2023/07/26 08:52:29;;;;;;;4.22;2.65;;;;;;;18.04;94.78;101054.44;5002440;28;20065;-80
2023/07/26 08:54:55;;;;;;;7.05;2.55;;;;;;;18.05;94.72;101056.03;5002620;28;20096;-80
2023/07/26 08:57:24;;;;;;;3.83;2.35;;;;;;;17.80;100.00;101058.38;4999809;28;20367;-80
2023/07/26 08:59:49;;;;;;;5.75;2.70;;;;;;;17.98;97.01;101050.50;4999099;28;20030;-80
2023/07/26 09:02:16;;;;;;;3.47;2.20;;;;;;;18.72;92.15;101052.63;5005648;28;20490;-80
2023/07/26 09:04:42;;;;;;;4.20;2.53;;;;;;;17.93;96.45;101041.66;5000455;28;20022;-80
2023/07/26 09:07:07;;;;;;;6.05;2.60;;;;;;;17.60;99.57;101044.88;5005519;28;20037;-80
2023/07/26 09:09:34;;;;;;;3.92;2.40;;;;;;;18.76;93.65;101041.22;4997760;28;20045;-80
2023/07/26 09:12:01;;;;;;;4.03;3.00;;;;;;;18.73;93.35;101042.88;5001607;28;20530;-80
2023/07/26 09:14:27;;;;;;;4.28;2.42;;;;;;;17.75;95.30;101047.50;5005566;28;20438;-80
2023/07/26 09:17:01;;;;;;;4.93;2.95;;;;;;;17.92;96.43;101038.03;5023980;28;20622;-81
2023/07/26 09:19:32;;;;;;;5.22;2.88;;;;;;;17.74;98.16;101037.41;5001181;28;20057;-80
2023/07/26 09:22:00;;;;;;;3.58;2.33;;;;;;;17.94;96.81;101044.06;5005731;28;20030;-80
2023/07/26 09:24:34;;;;;;;3.88;2.80;;;;;;;18.04;96.20;101040.25;4998117;28;20478;-80
2023/07/26 09:27:19;;;;;;;3.55;2.20;;;;;;;17.54;98.89;101038.06;5013036;28;20034;-81
2023/07/26 09:29:56;;;;;;;4.03;2.88;;;;;;;18.11;97.11;101035.72;4997114;28;20023;-81
2023/07/26 09:32:29;;;;;;;3.47;2.33;;;;;;;18.19;96.23;101028.72;5003786;28;20406;-81
2023/07/26 09:34:59;;;;;;;4.38;2.50;;;;;;;17.84;94.98;101045.00;4998370;28;20081;-81
2023/07/26 09:37:24;;;;;;;3.60;2.20;;;;;;;18.01;97.24;101043.16;5001761;28;20034;-81
2023/07/26 09:39:50;;;;;;;3.90;2.55;;;;;;;18.43;96.05;101041.75;5001875;28;20034;-80
2023/07/26 09:42:15;;;;;;;2.72;2.10;;;;;;;18.40;94.72;101038.94;4999022;28;20101;-81
2023/07/26 09:44:45;;;;;;;4.63;2.17;;;;;;;18.21;95.25;101034.78;5013858;28;20025;-81
2023/07/26 09:47:10;;;;;;;6.43;2.45;;;;;;;18.33;95.13;101031.38;5006199;28;20041;-80
2023/07/26 09:49:50;;;;;;;4.07;2.58;;;;;;;18.37;93.78;101034.94;5005042;28;20482;-81
2023/07/26 09:52:19;;;;;;;2.75;2.10;;;;;;;18.45;92.98;101027.94;4999151;28;20030;-81
2023/07/26 09:54:46;;;;;;;6.05;3.28;;;;;;;18.17;91.38;101034.03;5005502;28;20141;-81
2023/07/26 09:57:14;;;;;;;9.63;3.20;;;;;;;17.59;96.42;101031.13;4997644;28;20028;-80
2023/07/26 09:59:40;;;;;;;3.20;2.28;;;;;;;17.93;97.04;101019.78;5000929;28;20459;-80
2023/07/26 10:02:11;;;;;;;4.95;2.90;;;;;;;18.40;96.10;101030.44;4991106;28;20026;-80
2023/07/26 10:04:50;;;;;;;3.70;2.72;;;;;;;18.71;92.51;101024.69;4996071;28;20508;-80
2023/07/26 10:07:16;;;;;;;6.57;2.40;;;;;;;18.42;90.42;101023.13;4962860;28;1101877;-80
2023/07/26 10:09:43;;;;;;;6.88;2.50;;;;;;;18.66;91.44;101023.16;5001679;28;20287;-80
2023/07/26 10:12:09;;;;;;;9.20;2.55;;;;;;;18.42;92.39;101023.13;5002316;28;20021;-80
2023/07/26 10:14:36;;;;;;;4.50;2.15;;;;;;;18.67;91.19;101024.75;5001298;28;20532;-80
2023/07/26 10:17:03;;;;;;;3.78;2.47;;;;;;;18.60;90.98;101019.22;4991302;28;20033;-80
2023/07/26 10:19:30;;;;;;;6.07;2.72;;;;;;;18.33;96.49;101020.03;5011823;28;20470;-79
2023/07/26 10:21:56;;;;;;;6.43;2.55;;;;;;;18.05;96.92;101024.88;5005856;28;20063;-79
2023/07/26 10:24:23;;;;;;;5.43;3.08;;;;;;;18.39;94.28;101018.31;4999721;28;20655;-77
2023/07/26 10:26:50;;;;;;;5.70;2.90;;;;;;;18.61;91.28;101017.97;5001248;28;20036;-76
2023/07/26 10:29:17;;;;;;;3.78;2.33;;;;;;;19.08;90.36;101015.97;5004051;28;20484;-76
2023/07/26 10:31:44;;;;;;;4.25;2.15;;;;;;;19.07;87.59;101010.72;5001299;28;20065;-75
2023/07/26 10:34:17;;;;;;;2.85;2.00;;;;;;;18.77;90.39;101026.59;4999664;28;20088;-75
2023/07/26 10:36:43;;;;;;;7.18;3.85;;;;;;;18.79;91.59;101018.50;4996227;28;20041;-75
2023/07/26 10:39:09;;;;;;;4.15;2.60;;;;;;;18.44;90.86;101019.84;5001275;28;20631;-76
2023/07/26 10:41:35;;;;;;;8.57;3.58;;;;;;;18.21;92.03;101012.13;5001434;28;20406;-76
2023/07/26 10:44:19;;;;;;;4.70;2.67;;;;;;;18.19;95.89;101014.56;4998222;28;20030;-76
2023/07/26 10:46:50;;;;;;;4.40;2.00;;;;;;;18.01;98.66;101026.97;5013450;28;20028;-76
2023/07/26 10:49:24;;;;;;;5.38;3.13;;;;;;;17.92;100.00;101023.03;5013866;28;20033;-76
2023/07/26 10:52:10;;;;;;;5.47;2.65;;;;;;;18.03;100.00;101018.84;4998830;28;20457;-76
2023/07/26 10:54:50;;;;;;;6.88;2.65;;;;;;;18.08;100.00;101011.91;4994883;28;20038;-76
2023/07/26 10:57:20;;;;;;;5.93;2.75;;;;;;;18.14;100.00;101015.06;5004504;28;20421;-77
2023/07/26 11:00:00;;;;;;;4.18;2.10;;;;;;;18.30;99.83;101015.22;4999872;28;20530;-77
2023/07/26 11:02:35;;;;;;;5.07;1.98;;;;;;;18.83;98.86;101007.09;5006192;28;20413;-77
2023/07/26 11:05:02;;;;;;;4.35;1.98;;;;;;;18.79;97.88;101012.84;5004937;28;20118;-77
2023/07/26 11:08:03;;;;;;;3.28;1.85;;;;;;;18.43;94.70;101018.28;5013713;28;20045;-76
2023/07/26 11:10:33;;;;;;;5.40;2.22;;;;;;;18.20;97.20;101017.00;4999197;28;20453;-77
2023/07/26 11:13:17;;;;;;;4.72;1.95;;;;;;;18.06;97.28;101034.97;5004037;28;20025;-77
2023/07/26 11:15:47;;;;;;;4.65;2.13;;;;;;;17.68;99.52;101034.25;5008387;28;20030;-77
2023/07/26 11:18:15;;;;;;;6.20;2.47;;;;;;;17.54;100.00;101060.72;4996717;28;20112;-77
2023/07/26 11:20:49;;;;;;;5.07;2.33;;;;;;;17.42;100.00;101047.09;5000064;28;20034;-77
2023/07/26 11:23:25;;;;;;;5.13;2.58;;;;;;;17.46;100.00;101050.69;4999963;28;20030;-76